NCAR-RAP Real-Time Weather Data

Output produced by METARs form (18 August 2018  01:01 UTC)
found at http://weather.rap.ucar.edu/surface/
 
RJOY 180000Z 06004KT 010V120 9999 FEW025 BKN/// 25/15 Q1012
RJOY 172300Z 01003KT 300V080 9999 FEW025 BKN/// 23/14 Q1012
RJOY 171000Z 35013KT 9999 FEW030 SCT/// 26/13 Q1010
RJOY 170900Z 35011KT 9999 FEW030 SCT/// 27/12 Q1009
RJOY 170800Z 33011KT 290V030 9999 FEW030 BKN/// 28/12 Q1009
RJOY 170700Z 35008KT 310V040 9999 FEW035 BKN/// 28/12 Q1009
RJOY 170600Z 35012KT 310V100 9999 FEW035 BKN/// 29/12 Q1009
RJOY 170500Z 34013KT 300V010 9999 FEW035 BKN/// 29/12 Q1009
RJOY 170400Z 35012KT 320V040 9999 FEW035 BKN/// 29/14 Q1009
RJOY 170300Z 35013KT 310V030 9999 FEW035 SCT/// 29/14 Q1010
RJOY 170200Z 02009KT 330V050 9999 FEW035 SCT050 29/16 Q1010
RJOY 170100Z 36010KT 320V030 9999 FEW030 SCT040 27/16 Q1011
RJOY 170000Z 35006KT 320V020 9999 FEW025 SCT035 27/17 Q1011
RJOY 162300Z 07006KT 040V100 9999 FEW025 SCT030 26/18 Q1011
RJOY 161000Z 26010KT 220V300 9999 FEW025 SCT090 BKN/// 29/24 Q1007
RJOY 160900Z 26011KT 9999 FEW025 SCT090 BKN/// 30/24 Q1007
RJOY 160800Z 26011KT 9999 FEW025 SCT035 BKN/// 30/24 Q1007
RJOY 160700Z 25009KT 210V280 9999 FEW025 SCT035 BKN/// 31/24 Q1006
RJOY 160600Z 26011KT 220V280 9999 -SHRA FEW025 SCT035 BKN060 31/25 Q1007
RJOY 160500Z 24011KT 9999 FEW025 SCT035 BKN/// 32/24 Q1007
RJOY 160400Z 24012KT 200V270 9999 FEW025 SCT035 BKN/// 32/24 Q1008
RJOY 160300Z 24014KT 200V270 9999 FEW025CB SCT035 BKN070 32/24 Q1008
RJOY 160200Z 22007KT 140V310 9999 FEW020 SCT030 BKN/// 33/25 Q1009
RJOY 160100Z 22009G19KT 170V270 9999 FEW015 SCT025 BKN035 31/24 Q1009
RJOY 160000Z 15004KT 100V200 9999 FEW010 SCT030 BKN/// 29/25 Q1009
RJOY 152300Z 14004KT 070V190 9999 FEW008 BKN/// 28/25 Q1009